createdAt,value
2023-09-23T00:01:27.023Z,100755.09
2023-09-23T00:03:54.213Z,100754.25
2023-09-23T00:06:22.277Z,100745.53
2023-09-23T00:08:49.703Z,100757.19
2023-09-23T00:11:16.523Z,100762.38
2023-09-23T00:13:43.879Z,100766.97
2023-09-23T00:16:15.918Z,100772.19
2023-09-23T00:18:47.017Z,100775.59
2023-09-23T00:21:14.299Z,100781.19
2023-09-23T00:23:41.145Z,100784.09
2023-09-23T00:26:11.354Z,100785.66
2023-09-23T00:28:38.084Z,100791.47
2023-09-23T00:31:12.655Z,100785.88
2023-09-23T00:33:39.790Z,100799.22
2023-09-23T00:36:08.627Z,100793.53
2023-09-23T00:38:35.295Z,100801.66
2023-09-23T00:41:04.706Z,100791.97
2023-09-23T00:43:33.716Z,100798.41
2023-09-23T00:46:01.099Z,100797.81
2023-09-23T00:48:32.228Z,100809.47
2023-09-23T00:51:01.122Z,100809.31
2023-09-23T00:53:30.460Z,100799.63
2023-09-23T00:55:58.700Z,100802.28
2023-09-23T00:58:28.034Z,100805.91
2023-09-23T01:00:56.164Z,100797.81
2023-09-23T01:03:23.490Z,100791.47
2023-09-23T01:06:12.622Z,100794.88
2023-09-23T01:08:39.727Z,100795.88
2023-09-23T01:11:10.213Z,100789.91
2023-09-23T01:13:37.299Z,100787.22
2023-09-23T01:16:13.167Z,100791.13
2023-09-23T01:18:50.886Z,100799.38
2023-09-23T01:21:17.412Z,100806.41
2023-09-23T01:23:45.726Z,100806.91
2023-09-23T01:26:15.361Z,100806.66
2023-09-23T01:28:42.308Z,100802.91
2023-09-23T01:31:09.562Z,100804.47
2023-09-23T01:33:36.774Z,100816.88
2023-09-23T01:36:04.353Z,100817.47
2023-09-23T01:38:32.172Z,100827.03
2023-09-23T01:41:00.871Z,100820.72
2023-09-23T01:43:28.149Z,100826.16
2023-09-23T01:46:00.162Z,100825.72
2023-09-23T01:48:31.315Z,100824.97
2023-09-23T01:51:01.550Z,100826.53
2023-09-23T01:53:29.270Z,100829.94
2023-09-23T01:55:56.167Z,100829.09
2023-09-23T01:58:24.024Z,100833.69
2023-09-23T02:00:51.966Z,100839.13
2023-09-23T02:03:18.731Z,100843.28
2023-09-23T02:05:47.980Z,100844.38
2023-09-23T02:08:15.425Z,100842.19
2023-09-23T02:10:44.844Z,100840.47
2023-09-23T02:13:11.385Z,100848.84
2023-09-23T02:15:37.845Z,100850.06
2023-09-23T02:18:05.650Z,100854.16
2023-09-23T02:20:32.281Z,100854.66
2023-09-23T02:22:58.883Z,100854.78
2023-09-23T02:25:28.452Z,100858.28
2023-09-23T02:27:57.038Z,100859.50
2023-09-23T02:30:24.472Z,100859.75
2023-09-23T02:32:51.038Z,100857.19
2023-09-23T02:35:17.877Z,100854.50
2023-09-23T02:37:49.665Z,100856.56
2023-09-23T02:40:16.533Z,100859.97
2023-09-23T02:42:44.830Z,100869.81
2023-09-23T02:45:13.691Z,100862.75
2023-09-23T02:47:41.723Z,100868.69
2023-09-23T02:50:11.364Z,100866.63
2023-09-23T02:52:40.165Z,100868.44
2023-09-23T02:55:14.079Z,100868.56
2023-09-23T02:57:42.481Z,100866.13
2023-09-23T03:00:19.533Z,100872.19
2023-09-23T03:02:57.616Z,100870.63
2023-09-23T03:05:30.963Z,100868.19
2023-09-23T03:08:00.029Z,100877.03
2023-09-23T03:10:40.596Z,100878.38
2023-09-23T03:13:08.895Z,100884.44
2023-09-23T03:15:37.793Z,100886.97
2023-09-23T03:18:06.646Z,100887.72
2023-09-23T03:20:35.584Z,100885.06
2023-09-23T03:23:02.156Z,100888.94
2023-09-23T03:25:28.899Z,100892.31
2023-09-23T03:27:56.545Z,100891.59
2023-09-23T03:30:24.342Z,100887.59
2023-09-23T03:32:51.055Z,100891.97
2023-09-23T03:35:19.048Z,100889.31
2023-09-23T03:37:51.916Z,100898.38
2023-09-23T03:40:28.179Z,100895.81
2023-09-23T03:42:54.670Z,100899.34
2023-09-23T03:45:21.194Z,100901.16
2023-09-23T03:47:48.152Z,100896.94
2023-09-23T03:50:16.149Z,100897.16
2023-09-23T03:52:43.842Z,100894.59
2023-09-23T03:55:12.438Z,100901.75
2023-09-23T03:57:39.462Z,100905.16
2023-09-23T04:00:19.253Z,100908.91
2023-09-23T04:02:48.684Z,100907.09
2023-09-23T04:05:16.341Z,100916.91
2023-09-23T04:07:52.146Z,100918.94
2023-09-23T04:10:21.032Z,100930.22
2023-09-23T04:12:47.610Z,100928.75
2023-09-23T04:15:14.254Z,100934.81
2023-09-23T04:17:40.974Z,100933.34
2023-09-23T04:20:12.021Z,100936.25
2023-09-23T04:22:39.289Z,100943.75
2023-09-23T04:25:07.123Z,100942.03
2023-09-23T04:27:38.797Z,100943.84
2023-09-23T04:30:10.688Z,100946.63
2023-09-23T04:32:37.878Z,100947.72
2023-09-23T04:35:05.206Z,100954.84
2023-09-23T04:37:34.945Z,100959.34
2023-09-23T04:40:01.520Z,100967.44
2023-09-23T04:42:28.258Z,100968.50
2023-09-23T04:44:54.719Z,100966.06
2023-09-23T04:47:21.254Z,100970.94
2023-09-23T04:49:47.857Z,100977.25
2023-09-23T04:52:16.762Z,100982.44
2023-09-23T04:54:43.889Z,100991.31
2023-09-23T04:57:10.583Z,100987.78
2023-09-23T04:59:37.175Z,100990.56
2023-09-23T05:02:04.777Z,100993.00
2023-09-23T05:04:31.526Z,100994.19
2023-09-23T05:06:58.357Z,100992.16
2023-09-23T05:09:27.417Z,100995.78
2023-09-23T05:11:54.197Z,100993.69
2023-09-23T05:14:22.015Z,100994.41
2023-09-23T05:16:51.723Z,101001.09
2023-09-23T05:19:20.802Z,101010.59
2023-09-23T05:21:48.178Z,101016.53
2023-09-23T05:24:15.089Z,101020.78
2023-09-23T05:26:41.722Z,101020.66
2023-09-23T05:29:08.457Z,101033.97
2023-09-23T05:31:37.463Z,101029.31
2023-09-23T05:34:05.122Z,101032.69
2023-09-23T05:36:32.773Z,101024.59
2023-09-23T05:39:00.138Z,101038.00
2023-09-23T05:41:26.863Z,101039.59
2023-09-23T05:43:53.787Z,101042.16
2023-09-23T05:46:20.377Z,101046.63
2023-09-23T05:48:49.915Z,101042.16
2023-09-23T05:51:16.945Z,101053.66
2023-09-23T05:53:44.186Z,101050.03
2023-09-23T05:56:10.948Z,101058.78
2023-09-23T05:58:37.631Z,101062.28
2023-09-23T06:01:04.732Z,101066.66
2023-09-23T06:03:31.275Z,101081.56
2023-09-23T06:05:57.929Z,101078.81
2023-09-23T06:08:24.492Z,101090.41
2023-09-23T06:10:53.079Z,101099.28
2023-09-23T06:13:19.726Z,101100.97
2023-09-23T06:15:48.878Z,101106.06
2023-09-23T06:18:15.908Z,101101.59
2023-09-23T06:20:42.519Z,101095.19
2023-09-23T06:23:09.130Z,101104.03
2023-09-23T06:25:35.788Z,101109.25
2023-09-23T06:28:02.395Z,101107.31
2023-09-23T06:30:28.982Z,101112.66
2023-09-23T06:32:55.475Z,101110.84
2023-09-23T06:35:22.023Z,101116.06
2023-09-23T06:37:48.554Z,101110.63
2023-09-23T06:40:15.847Z,101115.84
2023-09-23T06:42:42.581Z,101120.09
2023-09-23T06:45:10.963Z,101125.19
2023-09-23T06:47:38.008Z,101133.09
2023-09-23T06:50:05.898Z,101136.47
2023-09-23T06:52:32.425Z,101136.25
2023-09-23T06:55:00.456Z,101148.28
2023-09-23T06:57:27.277Z,101143.69
2023-09-23T06:59:53.988Z,101145.28
2023-09-23T07:02:21.351Z,101151.84
2023-09-23T07:04:48.675Z,101151.41
2023-09-23T07:07:15.240Z,101155.56
2023-09-23T07:09:41.739Z,101160.03
2023-09-23T07:12:10.302Z,101160.66
2023-09-23T07:14:36.733Z,101172.91
2023-09-23T07:17:05.495Z,101169.03
2023-09-23T07:19:32.052Z,101178.66
2023-09-23T07:21:58.561Z,101173.06
2023-09-23T07:24:27.380Z,101184.25
2023-09-23T07:26:58.765Z,101191.56
2023-09-23T07:29:26.092Z,101187.47
2023-09-23T07:31:56.239Z,101198.44
2023-09-23T07:34:23.123Z,101203.91
2023-09-23T07:36:49.809Z,101192.06
2023-09-23T07:39:17.793Z,101200.78
2023-09-23T07:41:44.375Z,101201.41
2023-09-23T07:44:12.481Z,101201.78
2023-09-23T07:46:39.151Z,101207.41
2023-09-23T07:49:06.405Z,101209.34
2023-09-23T07:51:32.819Z,101226.34
2023-09-23T07:53:59.385Z,101225.88
2023-09-23T07:56:26.010Z,101233.78
2023-09-23T07:58:52.572Z,101232.94
2023-09-23T08:01:19.082Z,101243.03
2023-09-23T08:03:45.779Z,101244.09
2023-09-23T08:06:13.140Z,101245.91
2023-09-23T08:08:39.636Z,101257.22
2023-09-23T08:11:06.488Z,101259.78
2023-09-23T08:13:33.028Z,101258.81
2023-09-23T08:16:00.257Z,101268.06
2023-09-23T08:18:26.771Z,101272.81
2023-09-23T08:21:00.613Z,101276.84
2023-09-23T08:23:27.949Z,101277.91
2023-09-23T08:25:55.445Z,101285.94
2023-09-23T08:28:22.304Z,101281.44
2023-09-23T08:30:51.255Z,101287.78
2023-09-23T08:33:17.814Z,101291.53
2023-09-23T08:35:48.623Z,101293.00
2023-09-23T08:38:15.997Z,101301.28
2023-09-23T08:40:45.518Z,101296.78
2023-09-23T08:43:12.526Z,101305.66
2023-09-23T08:45:47.342Z,101305.28
2023-09-23T08:48:14.501Z,101316.34
2023-09-23T08:50:44.878Z,101319.63
2023-09-23T08:53:14.414Z,101325.97
2023-09-23T08:55:41.338Z,101343.34
2023-09-23T08:58:07.916Z,101331.31
2023-09-23T09:00:35.178Z,101320.50
2023-09-23T09:03:02.395Z,101329.13
2023-09-23T09:05:39.704Z,101327.03
2023-09-23T09:08:09.025Z,101335.56
2023-09-23T09:10:35.694Z,101338.72
2023-09-23T09:13:04.437Z,101350.41
2023-09-23T09:15:34.130Z,101344.31
2023-09-23T09:18:03.273Z,101348.56
2023-09-23T09:20:30.320Z,101357.44
2023-09-23T09:22:56.902Z,101366.78
2023-09-23T09:25:23.743Z,101365.22
2023-09-23T09:27:52.615Z,101376.66
2023-09-23T09:30:20.596Z,101379.81
2023-09-23T09:32:48.902Z,101381.50
2023-09-23T09:35:17.403Z,101385.03
2023-09-23T09:37:46.110Z,101384.19
2023-09-23T09:40:18.300Z,101384.09
2023-09-23T09:42:55.822Z,101388.69
2023-09-23T09:45:23.741Z,101388.69
2023-09-23T09:47:53.064Z,101383.25
2023-09-23T09:50:20.476Z,101388.94
2023-09-23T09:52:47.227Z,101389.41
2023-09-23T09:55:18.373Z,101390.97
2023-09-23T09:57:45.235Z,101392.31
2023-09-23T10:00:32.499Z,101398.13
2023-09-23T10:03:07.389Z,101388.75
2023-09-23T10:05:48.185Z,101393.97
2023-09-23T10:08:19.348Z,101392.50
2023-09-23T10:10:48.744Z,101396.03
2023-09-23T10:13:16.865Z,101397.72
2023-09-23T10:15:44.644Z,101404.78
2023-09-23T10:18:41.689Z,101409.06
2023-09-23T10:21:21.487Z,101413.06
2023-09-23T10:23:48.160Z,101416.19
2023-09-23T10:26:19.909Z,101418.03
2023-09-23T10:29:06.204Z,101422.28
2023-09-23T10:31:34.633Z,101421.19
2023-09-23T10:34:08.532Z,101428.38
2023-09-23T10:36:37.488Z,101428.00
2023-09-23T10:39:07.250Z,101436.72
2023-09-23T10:41:37.852Z,101434.94
2023-09-23T10:44:04.763Z,101441.28
2023-09-23T10:46:32.409Z,101442.13
2023-09-23T10:48:59.939Z,101451.34
2023-09-23T10:51:27.635Z,101449.03
2023-09-23T10:53:56.703Z,101450.72
2023-09-23T10:56:23.653Z,101449.47
2023-09-23T10:58:53.908Z,101458.75
2023-09-23T11:01:22.240Z,101448.16
2023-09-23T11:03:49.424Z,101462.03
2023-09-23T11:06:17.974Z,101467.91
2023-09-23T11:08:45.330Z,101472.69
2023-09-23T11:11:13.693Z,101480.63
2023-09-23T11:13:40.691Z,101478.06
2023-09-23T11:16:10.893Z,101478.53
2023-09-23T11:18:39.162Z,101485.22
2023-09-23T11:21:06.156Z,101491.16
2023-09-23T11:23:34.089Z,101492.91
2023-09-23T11:26:00.900Z,101497.50
2023-09-23T11:28:28.851Z,101502.56
2023-09-23T11:30:57.142Z,101510.72
2023-09-23T11:33:24.205Z,101520.31
2023-09-23T11:35:50.742Z,101515.72
2023-09-23T11:38:19.874Z,101521.75
2023-09-23T11:40:47.832Z,101518.75
2023-09-23T11:43:14.389Z,101520.19
2023-09-23T11:45:43.282Z,101523.59
2023-09-23T11:48:10.811Z,101526.13
2023-09-23T11:50:39.707Z,101526.97
2023-09-23T11:53:06.779Z,101526.84
2023-09-23T11:55:34.456Z,101526.72
2023-09-23T11:58:01.340Z,101531.81
2023-09-23T12:00:28.083Z,101528.44
2023-09-23T12:02:54.837Z,101531.22
2023-09-23T12:05:22.024Z,101539.44
2023-09-23T12:07:48.983Z,101543.81
2023-09-23T12:10:15.492Z,101552.88
2023-09-23T12:12:44.381Z,101549.97
2023-09-23T12:15:11.417Z,101555.59
2023-09-23T12:17:38.969Z,101552.81
2023-09-23T12:20:12.414Z,101547.75
2023-09-23T12:22:39.996Z,101556.44
2023-09-23T12:25:07.813Z,101549.44
2023-09-23T12:27:34.961Z,101552.47
2023-09-23T12:30:02.380Z,101554.00
2023-09-23T12:32:29.757Z,101560.34
2023-09-23T12:34:56.441Z,101550.41
2023-09-23T12:37:22.968Z,101560.56
2023-09-23T12:39:49.493Z,101574.69
2023-09-23T12:42:16.346Z,101576.78
2023-09-23T12:44:43.301Z,101584.25
2023-09-23T12:47:10.045Z,101597.41
2023-09-23T12:49:38.026Z,101590.13
2023-09-23T12:52:05.010Z,101593.63
2023-09-23T12:54:32.025Z,101592.91
2023-09-23T12:56:58.997Z,101595.06
2023-09-23T12:59:25.696Z,101598.59
2023-09-23T13:01:52.406Z,101597.97
2023-09-23T13:04:19.370Z,101601.97
2023-09-23T13:06:46.459Z,101598.47
2023-09-23T13:09:13.249Z,101601.72
2023-09-23T13:11:40.236Z,101614.38
2023-09-23T13:14:08.814Z,101606.72
2023-09-23T13:16:35.401Z,101611.25
2023-09-23T13:19:02.209Z,101612.38
2023-09-23T13:21:28.850Z,101621.25
2023-09-23T13:23:55.380Z,101621.50
2023-09-23T13:26:22.331Z,101621.59
2023-09-23T13:28:49.380Z,101637.19
2023-09-23T13:31:16.229Z,101652.81
2023-09-23T13:33:42.873Z,101653.34
2023-09-23T13:36:10.338Z,101651.44
2023-09-23T13:38:36.957Z,101657.53
2023-09-23T13:41:05.583Z,101670.50
2023-09-23T13:43:32.185Z,101673.44
2023-09-23T13:45:59.004Z,101669.69
2023-09-23T13:48:25.708Z,101671.78
2023-09-23T13:50:52.871Z,101672.09
2023-09-23T13:53:19.404Z,101674.28
2023-09-23T13:55:46.285Z,101674.03
2023-09-23T13:58:13.033Z,101679.38
2023-09-23T14:00:39.635Z,101671.44
2023-09-23T14:03:06.183Z,101675.84
2023-09-23T14:05:33.329Z,101678.66
2023-09-23T14:08:00.177Z,101682.66
2023-09-23T14:10:26.850Z,101691.19
2023-09-23T14:12:53.359Z,101694.47
2023-09-23T14:15:20.420Z,101697.31
2023-09-23T14:17:48.928Z,101691.06
2023-09-23T14:20:15.842Z,101699.59
2023-09-23T14:22:46.534Z,101693.84
2023-09-23T14:25:14.784Z,101697.22
2023-09-23T14:27:41.911Z,101714.84
2023-09-23T14:30:09.422Z,101703.84
2023-09-23T14:32:36.758Z,101702.59
2023-09-23T14:35:04.117Z,101717.34
2023-09-23T14:37:33.399Z,101712.97
2023-09-23T14:40:01.256Z,101716.63
2023-09-23T14:42:28.215Z,101712.38
2023-09-23T14:44:54.939Z,101724.22
2023-09-23T14:47:21.921Z,101722.75
2023-09-23T14:49:48.897Z,101730.34
2023-09-23T14:52:15.459Z,101725.50
2023-09-23T14:54:42.871Z,101729.97
2023-09-23T14:57:09.502Z,101734.25
2023-09-23T14:59:36.041Z,101738.91
2023-09-23T15:02:03.927Z,101745.25
2023-09-23T15:04:32.031Z,101745.13
2023-09-23T15:07:00.691Z,101750.50
2023-09-23T15:09:27.924Z,101756.34
2023-09-23T15:11:54.900Z,101755.22
2023-09-23T15:14:30.427Z,101759.69
2023-09-23T15:16:56.966Z,101771.75
2023-09-23T15:19:23.532Z,101771.75
2023-09-23T15:21:50.250Z,101780.78
2023-09-23T15:24:18.260Z,101776.50
2023-09-23T15:26:45.274Z,101786.28
2023-09-23T15:29:12.190Z,101781.16
2023-09-23T15:31:39.073Z,101788.47
2023-09-23T15:34:06.149Z,101779.41
2023-09-23T15:36:32.940Z,101782.00
2023-09-23T15:39:00.215Z,101794.47
2023-09-23T15:41:26.797Z,101798.34
2023-09-23T15:43:53.486Z,101798.13
2023-09-23T15:46:20.131Z,101789.31
2023-09-23T15:48:46.904Z,101803.22
2023-09-23T15:51:16.604Z,101805.91
2023-09-23T15:53:43.799Z,101810.38
2023-09-23T15:56:18.193Z,101819.91
2023-09-23T15:58:45.324Z,101824.06
2023-09-23T16:01:12.133Z,101822.88
2023-09-23T16:03:38.680Z,101823.38
2023-09-23T16:06:05.606Z,101830.53
2023-09-23T16:08:32.083Z,101828.06
2023-09-23T16:10:58.641Z,101829.88
2023-09-23T16:13:25.381Z,101836.38
2023-09-23T16:15:51.992Z,101833.25
2023-09-23T16:18:21.535Z,101848.41
2023-09-23T16:20:51.184Z,101842.56
2023-09-23T16:23:18.379Z,101847.56
2023-09-23T16:25:45.390Z,101852.00
2023-09-23T16:28:11.869Z,101857.84
2023-09-23T16:30:38.510Z,101860.00
2023-09-23T16:33:05.246Z,101861.09
2023-09-23T16:35:31.937Z,101866.22
2023-09-23T16:37:58.522Z,101870.28
2023-09-23T16:40:25.054Z,101875.19
2023-09-23T16:42:51.679Z,101871.78
2023-09-23T16:45:18.482Z,101881.22
2023-09-23T16:47:45.501Z,101880.63
2023-09-23T16:50:12.224Z,101890.03
2023-09-23T16:52:38.929Z,101891.25
2023-09-23T16:55:05.924Z,101887.72
2023-09-23T16:57:32.753Z,101894.44
2023-09-23T16:59:59.431Z,101895.09
2023-09-23T17:02:26.638Z,101905.22
2023-09-23T17:04:53.852Z,101911.81
2023-09-23T17:07:20.550Z,101911.06
2023-09-23T17:09:47.255Z,101916.22
2023-09-23T17:12:14.028Z,101921.09
2023-09-23T17:14:40.903Z,101930.72
2023-09-23T17:17:07.762Z,101932.06
2023-09-23T17:19:35.055Z,101923.50
2023-09-23T17:22:01.785Z,101926.19
2023-09-23T17:24:30.150Z,101930.84
2023-09-23T17:27:04.874Z,101932.19
2023-09-23T17:29:31.737Z,101931.78
2023-09-23T17:31:58.309Z,101935.69
2023-09-23T17:34:25.161Z,101939.47
2023-09-23T17:36:51.903Z,101958.47
2023-09-23T17:39:18.342Z,101953.81
2023-09-23T17:41:45.471Z,101960.50
2023-09-23T17:44:12.059Z,101965.13
2023-09-23T17:46:38.631Z,101958.19
2023-09-23T17:49:05.667Z,101971.72
2023-09-23T17:51:34.416Z,101971.72
2023-09-23T17:54:02.928Z,101975.25
2023-09-23T17:56:29.564Z,101976.97
2023-09-23T17:58:56.264Z,101979.75
2023-09-23T18:01:23.416Z,101981.69
2023-09-23T18:03:50.511Z,101985.59
2023-09-23T18:06:17.370Z,101989.50
2023-09-23T18:08:44.005Z,101998.84
2023-09-23T18:11:11.350Z,102001.00
2023-09-23T18:13:39.996Z,102008.22
2023-09-23T18:16:07.151Z,102008.88
2023-09-23T18:18:34.019Z,102008.88
2023-09-23T18:21:01.715Z,102013.25
2023-09-23T18:23:28.287Z,102018.00
2023-09-23T18:25:56.056Z,102021.84
2023-09-23T18:28:22.669Z,102028.94
2023-09-23T18:30:49.203Z,102035.47
2023-09-23T18:33:15.889Z,102037.53
2023-09-23T18:35:42.646Z,102039.47
2023-09-23T18:38:09.408Z,102049.25
2023-09-23T18:40:36.004Z,102047.72
2023-09-23T18:43:02.579Z,102055.03
2023-09-23T18:45:29.073Z,102059.66
2023-09-23T18:48:08.048Z,102069.75
2023-09-23T18:50:39.914Z,102072.28
2023-09-23T18:53:06.685Z,102066.00
2023-09-23T18:55:33.451Z,102073.28
2023-09-23T18:58:06.473Z,102077.78
2023-09-23T19:00:33.372Z,102083.38
2023-09-23T19:03:00.112Z,102080.78
2023-09-23T19:05:29.633Z,102086.16
2023-09-23T19:07:56.160Z,102082.72
2023-09-23T19:10:23.194Z,102095.25
2023-09-23T19:12:49.738Z,102100.84
2023-09-23T19:15:17.921Z,102110.63
2023-09-23T19:17:45.198Z,102108.16
2023-09-23T19:20:12.203Z,102109.09
2023-09-23T19:22:38.970Z,102108.38
2023-09-23T19:25:08.711Z,102112.63
2023-09-23T19:27:36.303Z,102112.84
2023-09-23T19:30:06.563Z,102115.75
2023-09-23T19:32:33.280Z,102129.34
2023-09-23T19:35:00.553Z,102134.19
2023-09-23T19:37:27.060Z,102139.75
2023-09-23T19:39:53.523Z,102132.91
2023-09-23T19:42:20.099Z,102144.47
2023-09-23T19:44:46.834Z,102139.44
2023-09-23T19:47:13.667Z,102150.03
2023-09-23T19:49:40.912Z,102149.06
2023-09-23T19:52:07.439Z,102149.47
2023-09-23T19:54:35.485Z,102165.88
2023-09-23T19:57:02.303Z,102163.28
2023-09-23T19:59:28.980Z,102162.22
2023-09-23T20:01:55.546Z,102167.69
2023-09-23T20:04:22.354Z,102174.13
2023-09-23T20:06:48.997Z,102175.19
2023-09-23T20:09:15.793Z,102175.06
2023-09-23T20:11:43.662Z,102183.31
2023-09-23T20:14:10.563Z,102181.81
2023-09-23T20:16:37.216Z,102185.75
2023-09-23T20:19:04.062Z,102180.59
2023-09-23T20:21:30.722Z,102180.91
2023-09-23T20:23:57.337Z,102190.75
2023-09-23T20:26:24.402Z,102190.09
2023-09-23T20:28:50.917Z,102192.00
2023-09-23T20:31:17.832Z,102207.03
2023-09-23T20:33:44.936Z,102204.44
2023-09-23T20:36:11.661Z,102198.53
2023-09-23T20:38:40.081Z,102208.41
2023-09-23T20:41:07.572Z,102205.72
2023-09-23T20:43:36.843Z,102213.16
2023-09-23T20:46:04.535Z,102218.38
2023-09-23T20:48:31.806Z,102217.28
2023-09-23T20:50:58.471Z,102213.75
2023-09-23T20:53:25.355Z,102211.94
2023-09-23T20:55:52.436Z,102220.41
2023-09-23T20:58:19.499Z,102221.78
2023-09-23T21:00:46.169Z,102218.06
2023-09-23T21:03:15.804Z,102224.25
2023-09-23T21:05:43.815Z,102227.88
2023-09-23T21:08:11.382Z,102230.34
2023-09-23T21:10:38.199Z,102225.69
2023-09-23T21:13:04.871Z,102229.28
2023-09-23T21:15:32.249Z,102238.28
2023-09-23T21:18:02.132Z,102243.00
2023-09-23T21:20:29.040Z,102241.97
2023-09-23T21:22:55.823Z,102242.81
2023-09-23T21:25:22.828Z,102252.47
2023-09-23T21:27:49.716Z,102253.25
2023-09-23T21:30:17.598Z,102256.69
2023-09-23T21:32:44.517Z,102260.13
2023-09-23T21:35:11.368Z,102258.41
2023-09-23T21:37:38.103Z,102256.53
2023-09-23T21:40:05.211Z,102265.47
2023-09-23T21:42:31.788Z,102268.28
2023-09-23T21:44:59.091Z,102267.69
2023-09-23T21:47:26.090Z,102273.31
2023-09-23T21:49:52.887Z,102279.72
2023-09-23T21:52:19.471Z,102283.47
2023-09-23T21:54:45.963Z,102285.53
2023-09-23T21:57:12.505Z,102289.34
2023-09-23T21:59:39.293Z,102294.69
2023-09-23T22:02:08.065Z,102295.78
2023-09-23T22:07:01.570Z,102302.34
2023-09-23T22:09:29.557Z,102298.81
2023-09-23T22:11:56.073Z,102312.25
2023-09-23T22:14:22.607Z,102298.31
2023-09-23T22:16:49.217Z,102296.00
2023-09-23T22:19:15.705Z,102297.84
2023-09-23T22:21:45.080Z,102295.22
2023-09-23T22:24:12.502Z,102295.22
2023-09-23T22:26:39.350Z,102295.59
2023-09-23T22:29:11.018Z,102292.19
2023-09-23T22:31:38.745Z,102294.34
2023-09-23T22:34:05.340Z,102292.63
2023-09-23T22:36:33.961Z,102290.16
2023-09-23T22:39:00.867Z,102292.03
2023-09-23T22:41:29.637Z,102300.16
2023-09-23T22:43:56.915Z,102295.69
2023-09-23T22:46:25.612Z,102300.44
2023-09-23T22:48:52.676Z,102301.47
2023-09-23T22:51:20.786Z,102300.34
2023-09-23T22:53:47.976Z,102307.50
2023-09-23T22:56:14.950Z,102307.69
2023-09-23T22:58:42.106Z,102309.47
2023-09-23T23:01:13.760Z,102308.97
2023-09-23T23:03:40.486Z,102311.84
2023-09-23T23:06:07.836Z,102315.38
2023-09-23T23:08:35.657Z,102317.47
2023-09-23T23:11:08.106Z,102317.47
2023-09-23T23:13:36.791Z,102317.63
2023-09-23T23:16:08.149Z,102323.06
2023-09-23T23:18:35.144Z,102323.19
2023-09-23T23:21:03.288Z,102320.28
2023-09-23T23:23:31.460Z,102326.66
2023-09-23T23:26:00.304Z,102327.97
2023-09-23T23:28:28.339Z,102328.03
2023-09-23T23:30:55.262Z,102331.84
2023-09-23T23:33:22.543Z,102327.72
2023-09-23T23:35:49.208Z,102332.03
2023-09-23T23:38:15.893Z,102325.53
2023-09-23T23:40:42.863Z,102326.56
2023-09-23T23:43:11.673Z,102329.53
2023-09-23T23:45:39.224Z,102331.50
2023-09-23T23:48:05.868Z,102331.50
2023-09-23T23:50:32.467Z,102335.03
2023-09-23T23:52:58.974Z,102331.41
2023-09-23T23:55:27.530Z,102332.25
2023-09-23T23:57:54.404Z,102335.22
